METAR Data
IDs: Format: Raw Decoded Include TAF

Data at: 0642 UTC 28 Sep 2022

METAR for:KCAG (Craig-Moffat Arpt, CO, US)
Text:KCAG 280553Z AUTO 00000KT 10SM CLR 07/02 A3035 RMK AO2 SLP225 T00720017 10250 20061 51012
Temperature: 7.2°C ( 45°F)
Dewpoint: 1.7°C ( 35°F) [RH = 68%]
Pressure (altimeter):30.35 inches Hg (1027.9 mb) [Sea level pressure: 1022.5 mb]
Winds:calm
Visibility:10 or more sm (16+ km)
Ceiling:at least 12,000 feet AGL
Clouds:sky clear below 12,000 feet AGL
QC Flag:automated observation with no human augmentation